CheckWX is a tool to help pilots better visualize weather data.  It is not intended as a substitute for an official pre-flight weather briefing.

21:59:22 UTC

KBPK TAF
Baxter County Airport
Mountain Home, Arkansas, USA
KBPK 292037Z 2921/3018 VRB04KT 3SM BR OVC007 TEMPO 2921/2924 2SM BR FM300000 VRB04KT 4SM BR OVC006 FM300900 VRB04KT 2SM BR OVC004 FM301500 VRB04KT 4SM BR OVC009

Jan-29@
21:00 UTC

Jan-29 @ 21:00 UTC

Jan-30@
00:00 UTC

Jan-30 @ 00:00 UTC

KBPK 292037Z 2921/3018 VRB04KT 3SM BR OVC007
Wind
  • Variable at 4 KTS
Conditions
Mist
Cloud Levels
  • Overcast at 700' AGL

Jan-29@
21:00 UTC

Jan-29 @ 21:00 UTC

Jan-30@
00:00 UTC

Jan-30 @ 00:00 UTC

TEMPO 2921/2924 2SM BR

Temporary

Temporary Changes expected for less than half the time period

Conditions
Mist

Jan-30@
00:00 UTC

Jan-30 @ 00:00 UTC

Jan-30@
09:00 UTC

Jan-30 @ 09:00 UTC

FM300000 VRB04KT 4SM BR OVC006

From

From Standard forecast or significant change

Wind
  • Variable at 4 KTS
Conditions
Mist
Cloud Levels
  • Overcast at 600' AGL

Jan-30@
09:00 UTC

Jan-30 @ 09:00 UTC

Jan-30@
15:00 UTC

Jan-30 @ 15:00 UTC

FM300900 VRB04KT 2SM BR OVC004

From

From Standard forecast or significant change

Wind
  • Variable at 4 KTS
Conditions
Mist
Cloud Levels
  • Overcast at 400' AGL

Jan-30@
15:00 UTC

Jan-30 @ 15:00 UTC

Jan-30@
18:00 UTC

Jan-30 @ 18:00 UTC

FM301500 VRB04KT 4SM BR OVC009

From

From Standard forecast or significant change

Wind
  • Variable at 4 KTS
Conditions
Mist
Cloud Levels
  • Overcast at 900' AGL